createdAt,value
2018-09-12T00:01:14.740Z,13.80
2018-09-12T00:03:43.418Z,13.80
2018-09-12T00:06:11.099Z,13.80
2018-09-12T00:08:38.765Z,13.80
2018-09-12T00:11:06.374Z,13.80
2018-09-12T00:13:34.131Z,13.80
2018-09-12T00:16:01.766Z,13.80
2018-09-12T00:18:29.462Z,13.70
2018-09-12T00:20:57.163Z,13.70
2018-09-12T00:23:24.827Z,13.70
2018-09-12T00:25:52.478Z,13.70
2018-09-12T00:28:20.175Z,13.70
2018-09-12T00:30:47.878Z,13.60
2018-09-12T00:33:15.961Z,13.60
2018-09-12T00:35:43.686Z,13.60
2018-09-12T00:38:11.363Z,13.50
2018-09-12T00:40:39.016Z,13.50
2018-09-12T00:43:06.733Z,13.60
2018-09-12T00:45:34.411Z,13.50
2018-09-12T00:48:02.079Z,13.50
2018-09-12T00:50:29.752Z,13.50
2018-09-12T00:52:57.411Z,13.50
2018-09-12T00:55:25.135Z,13.50
2018-09-12T00:57:52.771Z,13.50
2018-09-12T01:00:20.454Z,13.50
2018-09-12T01:02:48.111Z,13.40
2018-09-12T01:05:15.795Z,13.40
2018-09-12T01:07:43.475Z,13.40
2018-09-12T01:10:11.155Z,13.40
2018-09-12T01:12:38.879Z,13.30
2018-09-12T01:15:06.559Z,13.30
2018-09-12T01:17:34.270Z,13.20
2018-09-12T01:20:02.018Z,13.10
2018-09-12T01:22:29.747Z,13.10
2018-09-12T01:24:57.435Z,13.10
2018-09-12T01:27:25.075Z,13.00
2018-09-12T01:29:52.763Z,13.00
2018-09-12T01:32:20.413Z,13.10
2018-09-12T01:34:48.051Z,13.10
2018-09-12T01:37:15.824Z,13.10
2018-09-12T01:39:43.517Z,13.10
2018-09-12T01:42:14.579Z,13.00
2018-09-12T01:44:42.251Z,13.00
2018-09-12T01:47:09.935Z,12.90
2018-09-12T01:49:37.598Z,12.90
2018-09-12T01:52:05.323Z,12.80
2018-09-12T01:54:33.015Z,12.70
2018-09-12T01:57:00.700Z,12.70
2018-09-12T01:59:28.339Z,12.80
2018-09-12T02:01:56.015Z,12.70
2018-09-12T02:04:23.709Z,12.60
2018-09-12T02:06:51.446Z,12.70
2018-09-12T02:09:19.111Z,12.60
2018-09-12T02:11:46.761Z,12.60
2018-09-12T02:14:14.475Z,12.60
2018-09-12T02:16:42.131Z,12.60
2018-09-12T02:19:09.896Z,12.50
2018-09-12T02:21:37.613Z,12.40
2018-09-12T02:24:05.335Z,12.40
2018-09-12T02:26:33.038Z,12.50
2018-09-12T02:29:00.762Z,12.40
2018-09-12T02:31:28.406Z,12.40
2018-09-12T02:33:56.091Z,12.40
2018-09-12T02:36:25.680Z,12.40
2018-09-12T02:38:53.418Z,12.30
2018-09-12T02:41:21.087Z,12.30
2018-09-12T02:43:48.855Z,12.20
2018-09-12T02:46:16.478Z,12.10
2018-09-12T02:48:44.122Z,12.10
2018-09-12T02:51:12.839Z,12.00
2018-09-12T02:53:40.498Z,12.00
2018-09-12T02:56:08.218Z,12.00
2018-09-12T02:58:35.899Z,12.10
2018-09-12T03:02:06.826Z,12.10
2018-09-12T03:04:50.033Z,12.00
2018-09-12T03:07:17.702Z,12.00
2018-09-12T03:09:45.347Z,11.90
2018-09-12T03:12:13.195Z,11.80
2018-09-12T03:14:40.859Z,11.80
2018-09-12T03:17:08.599Z,11.80
2018-09-12T03:19:36.324Z,11.70
2018-09-12T03:22:04.074Z,11.70
2018-09-12T03:24:35.515Z,11.70
2018-09-12T03:27:03.228Z,11.80
2018-09-12T03:29:30.905Z,11.80
2018-09-12T03:31:58.780Z,11.80
2018-09-12T03:34:27.611Z,11.70
2018-09-12T03:36:55.299Z,11.70
2018-09-12T03:39:22.968Z,11.60
2018-09-12T03:41:50.655Z,11.70
2018-09-12T03:44:18.340Z,11.70
2018-09-12T03:46:45.986Z,11.70
2018-09-12T03:49:14.067Z,11.70
2018-09-12T03:51:42.663Z,11.60
2018-09-12T03:54:10.311Z,11.50
2018-09-12T03:56:38.087Z,11.60
2018-09-12T03:59:05.758Z,11.60
2018-09-12T04:01:33.588Z,11.60
2018-09-12T04:04:01.239Z,11.60
2018-09-12T04:06:28.931Z,11.50
2018-09-12T04:08:56.579Z,11.50
2018-09-12T04:11:24.327Z,11.50
2018-09-12T04:13:52.086Z,11.50
2018-09-12T04:16:20.038Z,11.50
2018-09-12T04:18:47.766Z,11.50
2018-09-12T04:21:15.494Z,11.50
2018-09-12T04:23:43.171Z,11.50
2018-09-12T04:26:10.867Z,11.50
2018-09-12T04:28:38.573Z,11.50
2018-09-12T04:31:06.295Z,11.50
2018-09-12T04:33:34.817Z,11.40
2018-09-12T04:36:02.541Z,11.50
2018-09-12T04:38:30.206Z,11.40
2018-09-12T04:40:57.922Z,11.40
2018-09-12T04:43:25.643Z,11.40
2018-09-12T04:45:53.314Z,11.50
2018-09-12T04:48:21.050Z,11.40
2018-09-12T04:50:48.702Z,11.30
2018-09-12T04:53:16.334Z,11.40
2018-09-12T04:55:44.078Z,11.30
2018-09-12T04:58:11.761Z,11.30
2018-09-12T05:00:39.486Z,11.30
2018-09-12T05:03:07.187Z,11.30
2018-09-12T05:05:34.859Z,11.40
2018-09-12T05:08:03.589Z,11.40
2018-09-12T05:10:31.312Z,11.30
2018-09-12T05:12:59.202Z,11.30
2018-09-12T05:15:26.908Z,11.30
2018-09-12T05:17:54.593Z,11.30
2018-09-12T05:20:22.275Z,11.30
2018-09-12T05:22:50.059Z,11.30
2018-09-12T05:25:17.858Z,11.30
2018-09-12T05:27:45.499Z,11.30
2018-09-12T05:30:13.194Z,11.30
2018-09-12T05:32:40.856Z,11.40
2018-09-12T05:35:09.538Z,11.50
2018-09-12T05:37:37.226Z,11.50
2018-09-12T05:40:05.714Z,11.50
2018-09-12T05:42:33.447Z,11.60
2018-09-12T05:45:01.132Z,11.60
2018-09-12T05:47:28.801Z,11.70
2018-09-12T05:49:56.500Z,11.80
2018-09-12T05:52:24.155Z,11.80
2018-09-12T05:54:51.912Z,11.80
2018-09-12T05:57:19.599Z,11.90
2018-09-12T05:59:47.279Z,12.00
2018-09-12T06:02:14.967Z,12.00
2018-09-12T06:04:42.681Z,12.10
2018-09-12T06:07:11.466Z,12.10
2018-09-12T06:09:39.043Z,12.20
2018-09-12T06:12:06.807Z,12.30
2018-09-12T06:14:34.474Z,12.40
2018-09-12T06:17:02.147Z,12.40
2018-09-12T06:19:29.851Z,12.50
2018-09-12T06:21:57.560Z,12.60
2018-09-12T06:24:25.237Z,12.60
2018-09-12T06:26:52.898Z,12.70
2018-09-12T06:29:20.570Z,12.80
2018-09-12T06:31:48.255Z,12.90
2018-09-12T06:34:15.882Z,13.00
2018-09-12T06:36:43.567Z,13.20
2018-09-12T06:46:38.827Z,13.30
2018-09-12T06:49:07.409Z,13.90
2018-09-12T06:51:35.108Z,14.00
2018-09-12T06:54:02.936Z,14.20
2018-09-12T06:56:30.695Z,14.40
2018-09-12T06:58:58.395Z,14.80
2018-09-12T07:01:26.023Z,15.00
2018-09-12T07:03:57.237Z,15.10
2018-09-12T07:06:24.956Z,15.10
2018-09-12T07:08:52.612Z,15.20
2018-09-12T07:11:20.286Z,15.40
2018-09-12T07:13:48.047Z,15.70
2018-09-12T07:16:15.703Z,15.70
2018-09-12T07:18:43.425Z,15.80
2018-09-12T07:21:11.159Z,15.80
2018-09-12T07:23:38.822Z,15.80
2018-09-12T07:26:06.970Z,15.90
2018-09-12T07:28:34.713Z,16.00
2018-09-12T07:31:02.395Z,16.10
2018-09-12T07:33:30.091Z,16.20
2018-09-12T07:35:57.751Z,16.40
2018-09-12T07:38:25.409Z,16.40
2018-09-12T07:40:53.071Z,16.50
2018-09-12T07:43:20.775Z,16.60
2018-09-12T07:45:48.453Z,16.70
2018-09-12T07:48:16.138Z,16.80
2018-09-12T07:50:49.083Z,16.90
2018-09-12T07:53:17.411Z,17.10
2018-09-12T07:55:45.050Z,17.20
2018-09-12T07:58:12.896Z,17.30
2018-09-12T08:00:40.673Z,17.50
2018-09-12T08:03:08.758Z,17.60
2018-09-12T08:05:36.371Z,17.50
2018-09-12T08:08:04.174Z,17.80
2018-09-12T08:10:31.820Z,17.90
2018-09-12T08:12:59.487Z,17.90
2018-09-12T08:15:28.184Z,18.00
2018-09-12T08:17:55.879Z,18.20
2018-09-12T08:20:23.575Z,18.40
2018-09-12T08:22:51.243Z,18.40
2018-09-12T08:25:18.938Z,18.50
2018-09-12T08:27:46.631Z,18.60
2018-09-12T08:30:14.367Z,18.70
2018-09-12T08:32:42.047Z,18.90
2018-09-12T08:35:12.970Z,19.10
2018-09-12T08:37:40.671Z,19.10
2018-09-12T08:40:08.326Z,19.20
2018-09-12T08:42:36.023Z,19.30
2018-09-12T08:45:03.797Z,19.30
2018-09-12T08:47:31.549Z,19.40
2018-09-12T08:49:59.163Z,19.30
2018-09-12T08:52:26.897Z,19.30
2018-09-12T08:54:54.551Z,19.30
2018-09-12T08:57:22.988Z,19.40
2018-09-12T08:59:50.715Z,19.40
2018-09-12T09:02:18.445Z,19.50
2018-09-12T09:04:46.427Z,19.80
2018-09-12T09:07:14.103Z,19.90
2018-09-12T09:09:41.766Z,19.80
2018-09-12T09:12:09.435Z,19.80
2018-09-12T09:14:37.214Z,20.10
2018-09-12T09:17:04.938Z,20.20
2018-09-12T09:19:32.582Z,20.40
2018-09-12T09:22:00.271Z,20.40
2018-09-12T09:24:28.011Z,20.50
2018-09-12T09:26:55.700Z,20.50
2018-09-12T09:29:23.494Z,20.50
2018-09-12T09:31:54.817Z,20.30
2018-09-12T09:34:22.447Z,20.70
2018-09-12T09:36:50.665Z,21.00
2018-09-12T09:39:18.442Z,21.10
2018-09-12T09:41:46.146Z,21.30
2018-09-12T09:44:13.816Z,21.20
2018-09-12T09:46:41.542Z,21.40
2018-09-12T09:49:09.252Z,21.70
2018-09-12T09:51:36.886Z,21.80
2018-09-12T09:54:04.602Z,21.70
2018-09-12T09:56:32.218Z,21.90
2018-09-12T09:58:59.844Z,22.10
2018-09-12T10:01:33.050Z,22.00
2018-09-12T10:04:06.495Z,22.20
2018-09-12T10:06:39.983Z,22.40
2018-09-12T10:09:13.807Z,22.30
2018-09-12T10:11:42.113Z,22.40
2018-09-12T10:14:09.946Z,22.60
2018-09-12T10:16:37.659Z,22.70
2018-09-12T10:19:05.566Z,22.90
2018-09-12T10:21:33.289Z,22.90
2018-09-12T10:24:00.931Z,22.90
2018-09-12T10:26:28.647Z,23.00
2018-09-12T10:28:59.364Z,23.20
2018-09-12T10:31:27.086Z,23.10
2018-09-12T10:33:54.731Z,23.10
2018-09-12T10:36:22.387Z,23.20
2018-09-12T10:38:50.080Z,23.40
2018-09-12T10:41:17.815Z,23.70
2018-09-12T10:43:45.558Z,23.70
2018-09-12T10:46:13.159Z,23.70
2018-09-12T10:48:40.908Z,24.00
2018-09-12T10:51:08.607Z,23.80
2018-09-12T10:53:36.238Z,24.10
2018-09-12T10:56:03.940Z,24.30
2018-09-12T10:58:31.630Z,24.20
2018-09-12T11:00:59.261Z,24.20
2018-09-12T11:03:26.951Z,24.10
2018-09-12T11:05:54.599Z,24.40
2018-09-12T11:08:22.363Z,24.30
2018-09-12T11:10:53.179Z,24.30
2018-09-12T11:13:20.850Z,24.40
2018-09-12T11:15:48.532Z,24.60
2018-09-12T11:18:16.190Z,24.60
2018-09-12T11:20:43.827Z,24.80
2018-09-12T11:23:11.552Z,24.70
2018-09-12T11:25:39.248Z,24.60
2018-09-12T11:28:07.000Z,24.70
2018-09-12T11:30:34.708Z,24.90
2018-09-12T11:33:02.484Z,24.80
2018-09-12T11:35:30.207Z,24.60
2018-09-12T11:38:01.411Z,24.50
2018-09-12T11:40:29.131Z,24.90
2018-09-12T11:42:56.819Z,25.00
2018-09-12T11:45:24.503Z,25.00
2018-09-12T11:47:52.491Z,25.20
2018-09-12T11:50:20.219Z,25.10
2018-09-12T11:52:47.867Z,25.00
2018-09-12T11:55:15.579Z,25.00
2018-09-12T11:57:43.202Z,24.90
2018-09-12T12:00:10.886Z,25.30
2018-09-12T12:02:39.667Z,25.60
2018-09-12T12:05:07.375Z,25.60
2018-09-12T12:07:35.039Z,25.70
2018-09-12T12:10:02.841Z,25.70
2018-09-12T12:12:30.498Z,25.90
2018-09-12T12:14:58.191Z,26.00
2018-09-12T12:17:25.792Z,26.20
2018-09-12T12:19:53.543Z,26.30
2018-09-12T12:22:25.023Z,26.20
2018-09-12T12:24:52.687Z,26.70
2018-09-12T12:27:20.386Z,27.40
2018-09-12T12:29:48.006Z,28.10
2018-09-12T12:32:15.722Z,28.80
2018-09-12T12:34:43.378Z,29.60
2018-09-12T12:37:11.002Z,30.10
2018-09-12T12:39:38.687Z,30.40
2018-09-12T12:42:06.354Z,29.60
2018-09-12T12:44:34.041Z,28.90
2018-09-12T12:47:01.782Z,28.50
2018-09-12T12:49:29.527Z,28.10
2018-09-12T13:07:24.518Z,27.80
2018-09-12T13:09:52.495Z,28.00
2018-09-12T13:12:20.187Z,28.10
2018-09-12T13:14:51.184Z,27.90
2018-09-12T13:17:18.874Z,28.10
2018-09-12T13:19:46.582Z,27.80
2018-09-12T13:22:14.311Z,27.70
2018-09-12T13:24:41.977Z,27.90
2018-09-12T13:27:09.688Z,28.10
2018-09-12T13:29:37.391Z,27.90
2018-09-12T13:32:05.070Z,28.10
2018-09-12T13:34:32.743Z,28.00
2018-09-12T13:37:00.359Z,27.90
2018-09-12T13:39:28.139Z,28.10
2018-09-12T13:41:55.779Z,28.40
2018-09-12T13:44:23.540Z,28.40
2018-09-12T13:46:51.076Z,28.80
2018-09-12T13:49:18.733Z,28.90
2018-09-12T13:51:46.370Z,29.10
2018-09-12T13:54:14.067Z,29.40
2018-09-12T13:56:41.743Z,29.60
2018-09-12T13:59:09.431Z,30.20
2018-09-12T14:01:37.112Z,30.70
2018-09-12T14:04:04.846Z,30.80
2018-09-12T14:06:32.467Z,30.80
2018-09-12T14:09:00.177Z,31.00
2018-09-12T14:11:27.896Z,31.40
2018-09-12T14:13:55.623Z,31.50
2018-09-12T14:16:23.291Z,31.50
2018-09-12T14:18:50.885Z,31.20
2018-09-12T14:21:18.571Z,31.10
2018-09-12T14:23:46.240Z,30.80
2018-09-12T14:26:13.874Z,30.70
2018-09-12T14:28:41.618Z,31.00
2018-09-12T14:31:09.350Z,31.20
2018-09-12T14:33:37.357Z,30.90
2018-09-12T14:36:05.034Z,30.90
2018-09-12T14:38:32.651Z,30.70
2018-09-12T14:41:00.341Z,30.90
2018-09-12T14:43:28.007Z,30.40
2018-09-12T14:45:55.750Z,30.20
2018-09-12T14:48:23.416Z,30.10
2018-09-12T14:50:51.186Z,30.00
2018-09-12T14:53:18.752Z,29.90
2018-09-12T14:55:46.475Z,29.50
2018-09-12T14:58:14.190Z,29.00
2018-09-12T15:00:41.823Z,29.30
2018-09-12T15:03:09.511Z,29.20
2018-09-12T15:05:40.466Z,29.40
2018-09-12T15:08:08.062Z,29.40
2018-09-12T15:10:35.813Z,29.40
2018-09-12T15:13:03.403Z,29.40
2018-09-12T15:15:31.061Z,29.50
2018-09-12T15:17:58.803Z,29.40
2018-09-12T15:20:26.471Z,29.30
2018-09-12T15:22:54.131Z,29.30
2018-09-12T15:25:21.786Z,29.20
2018-09-12T15:27:49.563Z,29.00
2018-09-12T15:30:17.148Z,29.00
2018-09-12T15:32:45.868Z,29.10
2018-09-12T15:35:13.531Z,29.00
2018-09-12T15:37:41.246Z,28.80
2018-09-12T15:40:08.895Z,28.80
2018-09-12T15:42:37.650Z,28.90
2018-09-12T15:45:05.371Z,28.80
2018-09-12T15:47:33.065Z,28.70
2018-09-12T15:50:00.735Z,28.70
2018-09-12T15:52:28.450Z,28.60
2018-09-12T15:54:56.117Z,28.70
2018-09-12T15:57:23.791Z,28.70
2018-09-12T15:59:51.508Z,28.60
2018-09-12T16:02:19.179Z,28.60
2018-09-12T16:04:46.915Z,28.40
2018-09-12T16:07:14.558Z,28.40
2018-09-12T16:09:42.270Z,28.30
2018-09-12T16:12:10.111Z,28.30
2018-09-12T16:14:37.775Z,27.90
2018-09-12T16:17:05.487Z,28.00
2018-09-12T16:19:33.126Z,28.00
2018-09-12T16:22:00.791Z,27.70
2018-09-12T16:24:28.441Z,27.40
2018-09-12T16:26:56.102Z,27.30
2018-09-12T16:29:23.802Z,27.40
2018-09-12T16:31:53.561Z,27.30
2018-09-12T16:34:21.250Z,27.30
2018-09-12T16:36:49.009Z,27.30
2018-09-12T16:39:16.670Z,27.40
2018-09-12T16:41:44.310Z,27.20
2018-09-12T16:44:11.994Z,27.20
2018-09-12T16:46:39.667Z,27.00
2018-09-12T16:49:07.349Z,26.70
2018-09-12T16:51:35.045Z,26.70
2018-09-12T16:54:02.698Z,27.10
2018-09-12T16:56:30.927Z,27.00
2018-09-12T16:58:58.535Z,26.60
2018-09-12T17:01:26.323Z,26.70
2018-09-12T17:03:54.354Z,26.50
2018-09-12T17:06:22.101Z,26.20
2018-09-12T17:08:50.087Z,26.20
2018-09-12T17:11:17.821Z,25.90
2018-09-12T17:13:45.596Z,25.60
2018-09-12T17:16:13.319Z,25.90
2018-09-12T17:18:41.001Z,26.00
2018-09-12T17:21:08.694Z,25.70
2018-09-12T17:23:36.346Z,25.30
2018-09-12T17:26:03.946Z,25.00
2018-09-12T17:28:31.631Z,24.80
2018-09-12T17:30:59.278Z,24.60
2018-09-12T17:33:26.981Z,24.40
2018-09-12T17:35:54.571Z,24.20
2018-09-12T17:38:22.322Z,24.10
2018-09-12T17:40:50.134Z,23.90
2018-09-12T17:43:17.851Z,23.80
2018-09-12T17:45:45.583Z,23.60
2018-09-12T17:48:13.283Z,23.50
2018-09-12T17:50:40.980Z,23.40
2018-09-12T17:53:08.702Z,23.30
2018-09-12T17:55:36.451Z,23.20
2018-09-12T17:58:04.158Z,23.10
2018-09-12T18:00:31.897Z,22.90
2018-09-12T18:02:59.537Z,22.90
2018-09-12T18:05:27.172Z,22.70
2018-09-12T18:07:54.918Z,22.70
2018-09-12T18:10:22.590Z,22.60
2018-09-12T18:12:50.275Z,22.50
2018-09-12T18:15:17.962Z,22.50
2018-09-12T18:17:45.679Z,22.40
2018-09-12T18:20:13.395Z,22.30
2018-09-12T18:22:41.087Z,22.40
2018-09-12T18:25:08.771Z,22.30
2018-09-12T18:27:36.542Z,22.20
2018-09-12T18:30:05.427Z,22.20
2018-09-12T18:32:33.070Z,22.20
2018-09-12T18:35:00.804Z,22.10
2018-09-12T18:37:28.549Z,22.20
2018-09-12T18:39:56.314Z,22.30
2018-09-12T18:42:26.053Z,22.30
2018-09-12T18:44:53.867Z,22.30
2018-09-12T18:47:21.607Z,22.30
2018-09-12T18:49:49.333Z,22.20
2018-09-12T18:52:17.107Z,22.10
2018-09-12T18:54:45.217Z,22.10
2018-09-12T18:57:13.959Z,22.10
2018-09-12T18:59:41.655Z,22.00
2018-09-12T19:02:09.422Z,22.00
2018-09-12T19:04:37.399Z,22.10
2018-09-12T19:07:05.249Z,22.20
2018-09-12T19:09:32.823Z,22.30
2018-09-12T19:12:00.650Z,22.30
2018-09-12T19:14:28.344Z,22.40
2018-09-12T19:16:56.085Z,22.30
2018-09-12T19:19:23.802Z,22.40
2018-09-12T19:21:52.598Z,22.40
2018-09-12T19:24:20.318Z,22.30
2018-09-12T19:26:51.368Z,22.30
2018-09-12T19:29:19.186Z,22.30
2018-09-12T19:31:47.480Z,22.20
2018-09-12T19:34:15.758Z,22.30
2018-09-12T19:36:43.809Z,22.30
2018-09-12T19:39:11.859Z,22.20
2018-09-12T19:41:39.892Z,22.20
2018-09-12T19:44:07.717Z,22.20
2018-09-12T19:46:35.419Z,22.10
2018-09-12T19:49:03.482Z,22.10
2018-09-12T19:51:31.158Z,22.10
2018-09-12T19:53:58.910Z,22.00
2018-09-12T19:56:26.686Z,21.90
2018-09-12T19:58:54.519Z,21.90
2018-09-12T20:01:22.554Z,21.90
2018-09-12T20:03:50.314Z,21.90
2018-09-12T20:06:19.412Z,21.90
2018-09-12T20:08:47.384Z,21.80
2018-09-12T20:11:15.129Z,21.80
2018-09-12T20:13:43.833Z,21.70
2018-09-12T20:16:15.348Z,21.70
2018-09-12T20:18:43.066Z,21.60
2018-09-12T20:21:10.923Z,21.60
2018-09-12T20:23:38.755Z,21.60
2018-09-12T20:26:06.470Z,21.60
2018-09-12T20:28:39.767Z,21.50
2018-09-12T20:31:08.325Z,21.50
2018-09-12T20:33:36.198Z,21.40
2018-09-12T20:36:04.363Z,21.40
2018-09-12T20:38:32.115Z,21.40
2018-09-12T20:40:59.800Z,21.40
2018-09-12T20:43:27.545Z,21.30
2018-09-12T20:45:55.202Z,21.20
2018-09-12T20:48:23.212Z,21.20
2018-09-12T20:50:50.934Z,21.20
2018-09-12T20:53:18.674Z,21.20
2018-09-12T20:55:46.339Z,21.10
2018-09-12T20:58:14.053Z,21.00
2018-09-12T21:00:42.382Z,21.00
2018-09-12T21:03:10.057Z,20.90
2018-09-12T21:05:37.718Z,20.90
2018-09-12T21:08:05.411Z,20.80
2018-09-12T21:10:33.613Z,20.80
2018-09-12T21:13:01.335Z,20.70
2018-09-12T21:15:29.087Z,20.60
2018-09-12T21:17:56.784Z,20.70
2018-09-12T21:20:24.439Z,20.60
2018-09-12T21:22:52.329Z,20.50
2018-09-12T21:25:20.447Z,20.50
2018-09-12T21:27:48.178Z,20.50
2018-09-12T21:30:15.936Z,20.50
2018-09-12T21:32:43.719Z,20.40
2018-09-12T21:35:13.446Z,20.40
2018-09-12T21:37:45.060Z,20.30
2018-09-12T21:40:12.995Z,20.30
2018-09-12T21:42:40.738Z,20.20
2018-09-12T21:45:08.604Z,20.20
2018-09-12T21:47:36.564Z,20.10
2018-09-12T21:50:04.325Z,20.20
2018-09-12T21:52:31.998Z,20.20
2018-09-12T21:54:59.718Z,20.20
2018-09-12T21:57:27.377Z,20.20
2018-09-12T21:59:55.087Z,20.10
2018-09-12T22:02:22.974Z,20.20
2018-09-12T22:04:50.675Z,20.20
2018-09-12T22:07:18.303Z,20.10
2018-09-12T22:09:45.915Z,20.10
2018-09-12T22:12:13.589Z,20.00
2018-09-12T22:14:41.306Z,20.00
2018-09-12T22:17:09.003Z,19.90
2018-09-12T22:19:36.707Z,19.90
2018-09-12T22:22:04.339Z,19.80
2018-09-12T22:24:32.040Z,19.80
2018-09-12T22:26:59.728Z,19.80
2018-09-12T22:29:27.622Z,19.80
2018-09-12T22:31:55.310Z,19.80
2018-09-12T22:34:23.010Z,19.70
2018-09-12T22:36:50.682Z,19.70
2018-09-12T22:39:18.334Z,19.70
2018-09-12T22:41:46.015Z,19.60
2018-09-12T22:44:13.694Z,19.50
2018-09-12T22:46:41.394Z,19.50
2018-09-12T22:49:09.074Z,19.40
2018-09-12T22:51:36.737Z,19.30
2018-09-12T22:54:04.501Z,19.30
2018-09-12T22:56:32.130Z,19.40
2018-09-12T22:58:59.804Z,19.40
2018-09-12T23:01:27.502Z,19.40
2018-09-12T23:03:55.145Z,19.50
2018-09-12T23:06:22.942Z,19.50
2018-09-12T23:08:50.688Z,19.30
2018-09-12T23:11:18.363Z,19.30
2018-09-12T23:13:46.150Z,19.30
2018-09-12T23:16:13.862Z,19.10
2018-09-12T23:18:41.546Z,19.00
2018-09-12T23:21:09.250Z,18.90
2018-09-12T23:23:36.934Z,18.90
2018-09-12T23:26:04.670Z,18.90
2018-09-12T23:28:32.409Z,18.80
2018-09-12T23:31:00.065Z,18.70
2018-09-12T23:33:27.715Z,18.80
2018-09-12T23:35:55.346Z,18.80
2018-09-12T23:38:22.998Z,18.70
2018-09-12T23:40:50.747Z,18.60
2018-09-12T23:43:18.427Z,18.50
2018-09-12T23:45:46.123Z,18.50
2018-09-12T23:48:13.775Z,18.40
2018-09-12T23:50:41.487Z,18.40
2018-09-12T23:53:09.142Z,18.30
2018-09-12T23:55:36.898Z,18.30
2018-09-12T23:58:04.650Z,18.20
